Sutton, North Dakota
Current Conditions -  °F | °C
As of 8:55 AM on Friday 28 Nov 2014 (Local Time) from K46D Reporting Station
Light Snow Light Snow  
Wind Chill: -5°   Ceiling: 600
Heat Index:   Visibility: 7mi
Dew Point:   Wind: 9mph
Humidity: 92%   Direction: 110°ESE
Pressure: 29.86"   Gusts: NA
Location:  47.4°N, 98.44°W
Report Text: K46D 281455Z AUTO 11008KT 7SM -SN FEW001 BKN006 OVC031 M13/M14 A2986 RMK AO2
Loading
Personal Weather Stations






























Interactive Weather Map New forecast layout! Learn more

10-Day Weather Forecast

Advertisements
Track Severe Weather on mobile